Terminal Aerodrome Forecast
Issued by NWS

Home | Current Version | Previous Version | Text Only | Print | Product List | Glossary On
Versions: 1 2 3 4 5 6 7 8 9 10 11 12 13 14 15 16 17 18
000
FTUS43 KAPX 020500
TAFMBL
TAF
KMBL 020524Z 0206/0306 00000KT 3SM BR SCT120
     FM020900 00000KT 1/2SM FG VV002
     FM021230 VRB03KT P6SM SKC
     FM021700 31007KT P6SM FEW070
     FM030000 VRB03KT P6SM SCT250
      AMD LTD TO CLD VIS AND WIND=

USA.gov is the U.S. government's official web portal to all federal, state and local government web resources and services.